Latest Weather Observations for Mornington Island

IDQ60801

Issued at 11:05 am EST Friday 25 October 2013 (issued every 30 minutes, with the page automatically refreshed every 10 minutes)

About weather observations | Map of weather stations | Latest weather observations for QLD | Other Formats
Station Details ID: 029039 Name: MORNINGTON ISLAND Lat: -16.66 Lon: 139.18 Height: 8.5 m
Data from the previous 72 hours. | See also: Recent months at Mornington Island
Date/Time
EST
Temp
°C
App
Temp
°C
Dew
Point
Rel
Hum
%
Delta-T
°C
Wind Press
QNH
hPa
Press
MSL
hPa
Rain
since 9 am
mm
Dir
 
Spd
km/h
Gust
km/h
Spd
kts
Gust
kts
25/11:00am 33.6 28.1 9.0 22 13.9 SE 28 39 15 21 1013.0 - 0.0
25/10:30am 32.4 26.5 9.2 24 13.1 SE 30 41 16 22 1013.2 - 0.0
25/10:16am 32.3 26.0 7.2 21 13.7 SE 30 48 16 26 1013.3 - 0.0
25/10:00am 32.7 26.6 6.8 20 14.1 ESE 28 41 15 22 1013.2 - 0.0
25/09:30am 31.3 26.7 8.3 24 12.7 SSE 22 37 12 20 1013.3 - 0.0
25/09:00am 31.3 26.9 8.9 25 12.5 SSE 22 35 12 19 1013.3 - 0.0
25/08:30am 30.9 26.0 6.7 22 13.0 SSE 22 39 12 21 1013.0 - 0.0
25/08:00am 30.8 25.8 6.6 22 13.0 SSE 22 41 12 22 1012.7 - 0.0
25/07:30am 30.4 25.9 7.0 23 12.6 SSE 20 35 11 19 1012.3 - 0.0
25/07:00am 30.1 25.7 7.3 24 12.3 SSE 20 37 11 20 1012.0 - 0.0
25/06:30am 29.6 25.4 7.5 25 12.0 SSE 19 32 10 17 1011.8 - 0.0
25/06:00am 29.5 25.8 10.1 30 11.0 SSE 20 33 11 18 1011.5 - 0.0
25/05:30am 29.6 26.2 10.7 31 10.8 SSE 19 32 10 17 1011.1 - 0.0
25/05:00am 29.5 26.5 12.0 34 10.2 SSE 19 30 10 16 1010.8 - 0.0
25/04:30am 29.6 27.5 14.6 40 9.1 SSE 19 32 10 17 1010.7 - 0.0
25/04:00am 28.1 28.4 17.9 54 6.5 S 13 26 7 14 1010.3 - 0.0
25/03:30am 28.4 28.6 17.6 52 6.8 S 13 22 7 12 1010.4 - 0.0
25/03:00am 28.5 30.5 21.5 66 4.7 SW 13 24 7 13 1010.4 - 0.0
25/02:30am 28.1 30.1 23.0 74 3.5 WSW 17 24 9 13 1010.4 - 0.0
25/02:00am 28.0 30.2 24.0 79 2.8 WSW 19 24 10 13 1010.5 - 0.0
25/01:30am 28.4 29.9 23.1 73 3.6 W 20 30 11 16 1010.6 - 0.0
25/01:00am 28.1 30.0 23.7 77 3.0 W 20 28 11 15 1010.9 - 0.0
25/12:30am 27.7 30.0 23.5 78 2.9 WNW 17 20 9 11 1010.6 - 0.0
25/12:00am 27.8 30.2 23.6 78 2.9 WNW 17 20 9 11 1010.5 - 0.0
 
Date/Time
EST
Temp
°C
App
Temp
°C
Dew
Point
Rel
Hum
%
Delta-T
°C
Wind Press
QNH
hPa
Press
MSL
hPa
Rain
since 9 am
mm
Dir
 
Spd
km/h
Gust
km/h
Spd
kts
Gust
kts
24/11:30pm 27.7 30.3 23.3 77 3.0 NW 15 19 8 10 1010.9 - 0.0
24/11:00pm 27.6 30.6 23.4 78 2.9 NNW 13 17 7 9 1010.7 - 0.0
24/10:30pm 27.6 30.6 23.4 78 2.9 NNW 13 17 7 9 1010.5 - 0.0
24/10:00pm 27.6 30.6 23.4 78 2.9 NNW 13 15 7 8 1010.6 - 0.0
24/09:30pm 27.7 30.7 23.3 77 3.0 N 13 19 7 10 1010.4 - 0.0
24/09:00pm 27.8 30.6 23.0 75 3.3 N 13 17 7 9 1010.2 - 0.0
24/08:30pm 27.8 30.4 22.7 74 3.5 N 13 17 7 9 1010.2 - 0.0
24/08:00pm 27.9 30.6 22.8 74 3.5 N 13 17 7 9 1010.0 - 0.0
24/07:30pm 28.0 29.9 22.7 73 3.6 N 17 26 9 14 1009.6 - 0.0
24/07:00pm 28.3 29.6 22.3 70 4.1 N 19 26 10 14 1009.4 - 0.0
24/06:30pm 29.0 30.3 21.7 64 4.9 N 17 26 9 14 1009.2 - 0.0
24/06:00pm 29.9 30.1 20.2 56 6.4 N 19 24 10 13 1009.1 - 0.0
24/05:30pm 30.4 31.0 20.3 54 6.7 N 17 22 9 12 1008.9 - 0.0
24/05:00pm 31.0 31.9 20.9 55 6.7 N 17 22 9 12 1008.9 - 0.0
24/04:30pm 30.5 31.1 21.0 57 6.3 N 19 26 10 14 1008.9 - 0.0
24/04:00pm 30.8 31.0 21.3 57 6.4 NNW 22 26 12 14 1009.3 - 0.0
24/03:30pm 30.6 31.2 21.1 57 6.4 NW 19 24 10 13 1009.5 - 0.0
24/03:00pm 31.3 32.7 21.8 57 6.4 WNW 17 20 9 11 1009.8 - 0.0
24/02:30pm 31.2 32.2 22.2 58 6.1 WNW 20 24 11 13 1010.1 - 0.0
24/02:00pm 31.0 31.9 21.5 57 6.4 WNW 19 24 10 13 1010.5 - 0.0
24/01:30pm 30.9 31.7 21.7 58 6.2 WNW 20 24 11 13 1010.8 - 0.0
24/01:00pm 31.0 31.7 21.5 57 6.4 NW 20 26 11 14 1011.4 - 0.0
24/12:30pm 33.7 32.6 13.2 29 12.4 ESE 11 19 6 10 1012.1 - 0.0
24/12:00pm 32.4 31.4 14.5 33 11.0 SE 13 19 7 10 1012.4 - 0.0
24/11:30am 32.4 31.3 17.8 41 9.4 ESE 20 30 11 16 1012.8 - 0.0
24/11:00am 31.8 31.4 19.4 47 8.1 ESE 20 33 11 18 1013.0 - 0.0
24/10:30am 30.6 29.5 21.1 57 6.4 E 28 37 15 20 1013.1 - 0.0
24/10:00am 30.6 30.7 21.1 57 6.4 SE 22 32 12 17 1013.2 - 0.0
24/09:30am 30.8 31.3 19.2 50 7.6 SE 15 24 8 13 1013.0 - 0.0
24/09:00am 30.6 32.4 21.9 59 5.9 SSE 15 22 8 12 1012.8 - 0.0
24/08:30am 30.0 32.6 21.9 62 5.5 SE 11 15 6 8 1012.4 - 0.0
24/08:00am 30.2 33.0 21.6 60 5.8 SE 9 13 5 7 1012.2 - 0.0
24/07:30am 28.9 32.3 21.7 65 4.8 S 6 9 3 5 1011.8 - 0.0
24/07:00am 27.9 32.1 22.4 72 3.7 ESE 4 7 2 4 1011.6 - 0.0
24/06:30am 27.1 31.0 22.5 76 3.1 SSE 6 9 3 5 1011.5 - 0.0
24/06:00am 27.4 30.1 22.8 76 3.1 SSW 13 24 7 13 1010.9 - 0.0
24/05:30am 27.3 30.2 23.1 78 2.9 SW 13 24 7 13 1010.5 - 0.0
24/05:00am 27.4 30.1 23.4 79 2.7 WSW 15 22 8 12 1009.6 - 0.0
24/04:30am 27.6 30.4 23.6 79 2.7 WSW 15 26 8 14 1009.2 - 0.0
24/04:00am 28.0 29.9 23.4 76 3.2 W 19 28 10 15 1009.0 - 0.0
24/03:30am 28.1 30.0 23.5 76 3.2 W 19 26 10 14 1009.1 - 0.0
24/03:00am 28.0 29.9 23.4 76 3.2 W 19 24 10 13 1008.7 - 0.0
24/02:30am 27.9 29.8 23.5 77 3.0 W 19 22 10 12 1008.8 - 0.0
24/02:00am 27.9 29.8 23.5 77 3.0 WNW 19 24 10 13 1008.9 - 0.0
24/01:30am 27.9 30.0 23.1 75 3.3 WNW 17 20 9 11 1009.3 - 0.0
24/01:00am 27.9 30.0 23.1 75 3.3 WNW 17 20 9 11 1009.5 - 0.0
24/12:30am 27.9 30.6 22.8 74 3.5 NNW 13 17 7 9 1009.5 - 0.0
24/12:00am 27.3 30.5 22.3 74 3.4 N 9 15 5 8 1009.4 - 0.0
 
Date/Time
EST
Temp
°C
App
Temp
°C
Dew
Point
Rel
Hum
%
Delta-T
°C
Wind Press
QNH
hPa
Press
MSL
hPa
Rain
since 9 am
mm
Dir
 
Spd
km/h
Gust
km/h
Spd
kts
Gust
kts
23/11:30pm 27.4 29.7 22.1 73 3.6 N 13 17 7 9 1009.4 - 0.0
23/11:00pm 27.3 30.3 22.0 73 3.6 N 9 11 5 6 1010.1 - 0.0
23/10:30pm 27.5 30.5 22.0 72 3.7 N 9 13 5 7 1010.2 - 0.0
23/10:00pm 27.7 30.1 22.2 72 3.7 N 13 15 7 8 1010.2 - 0.0
23/09:30pm 27.8 30.1 22.1 71 3.8 N 13 17 7 9 1010.2 - 0.0
23/09:00pm 28.1 29.9 21.9 69 4.2 NNW 15 20 8 11 1010.0 - 0.0
23/08:30pm 27.9 30.1 21.9 70 4.0 N 13 19 7 10 1009.7 - 0.0
23/08:00pm 28.0 30.4 21.5 67 4.3 N 11 15 6 8 1009.5 - 0.0
23/07:30pm 28.2 29.9 21.7 68 4.4 N 15 19 8 10 1009.6 - 0.0
23/07:00pm 28.3 30.0 21.6 67 4.5 NNW 15 19 8 10 1009.5 - 0.0
23/06:30pm 28.6 30.3 21.6 66 4.7 NNW 15 19 8 10 1009.4 - 0.0
23/06:00pm 28.7 30.4 21.7 66 4.7 NNW 15 20 8 11 1009.2 - 0.0
23/05:30pm 29.2 30.4 22.2 66 4.7 N 19 24 10 13 1008.9 - 0.0
23/05:00pm 30.4 31.3 22.0 60 5.7 N 20 24 11 13 1008.9 - 0.0
23/04:30pm 31.0 31.4 21.8 58 6.2 N 22 33 12 18 1008.7 - 0.0
23/04:00pm 31.1 31.2 21.9 58 6.2 NNW 24 37 13 20 1008.9 - 0.0
23/03:30pm 30.5 30.3 21.3 58 6.2 N 24 41 13 22 1008.8 - 0.0
23/03:00pm 31.3 31.4 21.8 57 6.4 NNW 24 35 13 19 1009.0 - 0.0
23/02:30pm 31.6 31.1 21.4 54 6.9 NNW 26 35 14 19 1009.4 - 0.0
23/02:00pm 30.9 30.2 21.1 56 6.6 NNW 26 37 14 20 1009.7 - 0.0
23/01:30pm 31.7 30.5 20.9 52 7.2 NNW 28 37 15 20 1009.9 - 0.0
23/01:00pm 32.2 30.5 20.5 50 7.8 NNW 30 37 16 20 1010.4 - 0.0
23/12:30pm 32.9 32.3 20.4 47 8.3 N 24 35 13 19 1010.9 - 0.0
23/12:00pm 32.9 32.1 20.1 47 8.5 N 24 37 13 20 1011.3 - 0.0
23/11:30am 32.0 31.1 19.9 48 8.0 N 24 30 13 16 1011.9 - 0.0
23/11:00am 32.0 31.2 19.3 47 8.3 N 22 33 12 18 1011.9 - 0.0
23/10:30am 32.3 32.7 20.9 51 7.6 N 20 30 11 16 1012.0 - 0.0
23/10:00am 31.9 32.0 19.2 47 8.3 NE 17 28 9 15 1012.0 - 0.0
23/09:30am 31.6 31.3 19.2 47 8.1 NNE 19 28 10 15 1012.1 - 0.0
23/09:00am 30.5 30.9 20.7 55 6.5 ENE 19 26 10 14 1012.1 - 0.0
23/08:30am 29.6 30.3 21.5 61 5.4 ENE 20 30 11 16 1012.0 - 0.0
23/08:00am 28.7 31.7 22.0 67 4.5 E 9 15 5 8 1011.9 - 0.0
23/07:30am 27.4 30.5 22.8 76 3.1 E 11 13 6 7 1011.5 - 0.0
23/07:00am 26.3 29.4 22.8 81 2.4 E 11 13 6 7 1011.2 - 0.0
23/06:30am 26.3 30.8 23.0 82 2.2 S 4 9 2 5 1010.7 - 0.0
23/06:00am 26.2 29.4 23.1 83 2.1 WSW 11 17 6 9 1009.9 - 0.0
23/05:30am 26.6 30.1 23.5 83 2.1 SW 11 17 6 9 1009.7 - 0.0
23/05:00am 27.0 30.5 23.5 81 2.4 SW 11 19 6 10 1009.4 - 0.0
23/04:30am 27.2 30.8 23.7 81 2.4 WSW 11 15 6 8 1009.0 - 0.0
23/04:00am 27.5 30.0 22.4 73 3.4 W 13 19 7 10 1008.8 - 0.0
23/03:30am 27.6 30.0 23.0 76 3.1 W 15 20 8 11 1008.5 - 0.0
23/03:00am 27.6 29.6 22.3 73 3.6 W 15 22 8 12 1008.7 - 0.0
23/02:30am 27.6 29.6 22.3 73 3.6 W 15 20 8 11 1008.9 - 0.0
23/02:00am 27.6 29.6 22.3 73 3.6 W 15 19 8 10 1009.1 - 0.0
23/01:30am 27.3 29.9 22.0 73 3.6 W 11 13 6 7 1009.1 - 0.0
23/01:00am 27.3 29.6 22.0 73 3.6 WNW 13 17 7 9 1009.3 - 0.0
23/12:30am 27.4 29.2 21.9 72 3.7 NW 15 19 8 10 1009.5 - 0.0
23/12:00am 27.5 29.5 22.2 73 3.6 NW 15 17 8 9 1009.9 - 0.0
 
Date/Time
EST
Temp
°C
App
Temp
°C
Dew
Point
Rel
Hum
%
Delta-T
°C
Wind Press
QNH
hPa
Press
MSL
hPa
Rain
since 9 am
mm
Dir
 
Spd
km/h
Gust
km/h
Spd
kts
Gust
kts
22/11:30pm 27.5 29.5 22.2 73 3.6 NW 15 19 8 10 1010.3 - 0.0
22/11:00pm 27.5 29.3 21.8 71 3.8 NW 15 17 8 9 1010.6 - 0.0
22/10:30pm 27.5 29.5 21.5 70 4.0 NW 13 15 7 8 1010.7 - 0.0
22/10:00pm 27.1 29.9 21.6 72 3.7 NNW 9 13 5 7 1010.6 - 0.0
22/09:30pm 26.9 29.5 21.2 71 3.8 NNW 9 13 5 7 1010.4 - 0.0
22/09:00pm 26.8 29.6 20.9 70 3.9 NNW 7 11 4 6 1010.2 - 0.0
22/08:30pm 27.1 29.2 20.9 69 4.1 N 11 13 6 7 1010.0 - 0.0
22/08:00pm 27.4 29.0 20.7 67 4.4 NNW 13 17 7 9 1010.1 - 0.0
22/07:30pm 27.3 29.4 20.1 64 4.7 N 9 13 5 7 1010.0 - 0.0
22/07:00pm 27.5 28.7 19.8 63 5.0 N 13 17 7 9 1010.0 - 0.0
22/06:30pm 28.1 29.0 20.1 62 5.2 N 15 19 8 10 - - 0.0
22/06:00pm 28.4 28.6 19.3 57 5.9 N 17 20 9 11 1009.8 - 0.0
22/05:30pm 28.9 28.5 18.9 54 6.5 N 19 24 10 13 1009.6 - 0.0
22/05:00pm 29.5 28.8 18.6 52 7.0 N 20 26 11 14 1009.6 - 0.0
22/04:30pm 29.7 29.1 18.8 52 7.0 NNW 20 30 11 16 1009.5 - 0.0
22/04:00pm 29.6 28.5 18.7 52 7.0 NNW 22 30 12 16 1009.5 - 0.0
22/03:30pm 30.6 29.7 19.0 50 7.5 N 22 33 12 18 1009.6 - 0.0
22/03:00pm 30.6 29.2 18.7 49 7.7 N 24 33 13 18 1009.6 - 0.0
22/02:30pm 31.4 30.3 18.7 46 8.2 N 22 33 12 18 1009.9 - 0.0
22/02:00pm 31.3 29.0 17.6 44 8.7 N 26 35 14 19 1010.2 - 0.0
22/01:30pm 31.2 28.1 15.6 39 9.7 N 26 37 14 20 1010.5 - 0.0
22/01:00pm 31.6 29.4 18.6 46 8.4 N 28 41 15 22 1010.9 - 0.0
22/12:30pm 32.0 30.2 19.6 47 8.2 N 28 39 15 21 1011.1 - 0.0
22/12:00pm 31.3 29.4 19.3 49 7.8 N 28 37 15 20 1011.6 - 0.0
22/11:30am 31.0 28.9 19.0 48 7.8 N 28 39 15 21 1011.9 - 0.0

Other Formats:

Comma delimited format used in spreadsheet applications
http://www.bom.gov.au/fwo/IDQ60801/IDQ60801.94256.axf

JavaScript Object Notation format (JSON) in row-major order
http://www.bom.gov.au/fwo/IDQ60801/IDQ60801.94256.json